sensor_id;sensor_type;location;lat;lon;timestamp;temperature;humidity
20459;DHT22;10388;52.314;7.938;2024-03-06T00:00:46;5.30;99.90
20459;DHT22;10388;52.314;7.938;2024-03-06T00:03:16;5.30;99.90
20459;DHT22;10388;52.314;7.938;2024-03-06T00:05:47;5.30;99.90
20459;DHT22;10388;52.314;7.938;2024-03-06T00:08:18;5.30;99.90
20459;DHT22;10388;52.314;7.938;2024-03-06T00:10:49;5.30;99.90
20459;DHT22;10388;52.314;7.938;2024-03-06T00:13:19;5.30;99.90
20459;DHT22;10388;52.314;7.938;2024-03-06T00:15:50;5.30;99.90
20459;DHT22;10388;52.314;7.938;2024-03-06T00:18:21;5.30;99.90
20459;DHT22;10388;52.314;7.938;2024-03-06T00:20:51;5.30;99.90
20459;DHT22;10388;52.314;7.938;2024-03-06T00:23:22;5.30;99.90
20459;DHT22;10388;52.314;7.938;2024-03-06T00:25:53;5.30;99.90
20459;DHT22;10388;52.314;7.938;2024-03-06T00:28:23;5.30;99.90
20459;DHT22;10388;52.314;7.938;2024-03-06T00:30:55;5.30;99.90
20459;DHT22;10388;52.314;7.938;2024-03-06T00:33:25;5.30;99.90
20459;DHT22;10388;52.314;7.938;2024-03-06T00:35:56;5.30;99.90
20459;DHT22;10388;52.314;7.938;2024-03-06T00:38:27;5.30;99.90
20459;DHT22;10388;52.314;7.938;2024-03-06T00:40:57;5.30;99.90
20459;DHT22;10388;52.314;7.938;2024-03-06T00:43:28;5.30;99.90
20459;DHT22;10388;52.314;7.938;2024-03-06T00:45:58;5.30;99.90
20459;DHT22;10388;52.314;7.938;2024-03-06T00:48:30;5.30;99.90
20459;DHT22;10388;52.314;7.938;2024-03-06T00:51:00;5.30;99.90
20459;DHT22;10388;52.314;7.938;2024-03-06T00:53:31;5.30;99.90
20459;DHT22;10388;52.314;7.938;2024-03-06T00:56:02;5.30;99.90
20459;DHT22;10388;52.314;7.938;2024-03-06T00:58:33;5.30;99.90
20459;DHT22;10388;52.314;7.938;2024-03-06T01:01:04;5.30;99.90
20459;DHT22;10388;52.314;7.938;2024-03-06T01:03:34;5.30;99.90
20459;DHT22;10388;52.314;7.938;2024-03-06T01:06:05;5.30;99.90
20459;DHT22;10388;52.314;7.938;2024-03-06T01:08:35;5.30;99.90
20459;DHT22;10388;52.314;7.938;2024-03-06T01:11:06;5.30;99.90
20459;DHT22;10388;52.314;7.938;2024-03-06T01:13:37;5.30;99.90
20459;DHT22;10388;52.314;7.938;2024-03-06T01:16:07;5.30;99.90
20459;DHT22;10388;52.314;7.938;2024-03-06T01:18:38;5.30;99.90
20459;DHT22;10388;52.314;7.938;2024-03-06T01:21:08;5.30;99.90
20459;DHT22;10388;52.314;7.938;2024-03-06T01:23:40;5.30;99.90
20459;DHT22;10388;52.314;7.938;2024-03-06T01:26:10;5.30;99.90
20459;DHT22;10388;52.314;7.938;2024-03-06T01:28:41;5.30;99.90
20459;DHT22;10388;52.314;7.938;2024-03-06T01:31:12;5.30;99.90
20459;DHT22;10388;52.314;7.938;2024-03-06T01:33:43;5.30;99.90
20459;DHT22;10388;52.314;7.938;2024-03-06T01:36:13;5.30;99.90
20459;DHT22;10388;52.314;7.938;2024-03-06T01:38:44;5.30;99.90
20459;DHT22;10388;52.314;7.938;2024-03-06T01:41:19;5.20;99.90
20459;DHT22;10388;52.314;7.938;2024-03-06T01:43:50;5.30;99.90
20459;DHT22;10388;52.314;7.938;2024-03-06T01:46:21;5.30;99.90
20459;DHT22;10388;52.314;7.938;2024-03-06T01:48:51;5.30;99.90
20459;DHT22;10388;52.314;7.938;2024-03-06T01:51:22;5.30;99.90
20459;DHT22;10388;52.314;7.938;2024-03-06T01:53:53;5.30;99.90
20459;DHT22;10388;52.314;7.938;2024-03-06T01:56:24;5.20;99.90
20459;DHT22;10388;52.314;7.938;2024-03-06T01:58:55;5.30;99.90
20459;DHT22;10388;52.314;7.938;2024-03-06T02:01:30;5.20;99.90
20459;DHT22;10388;52.314;7.938;2024-03-06T02:04:01;5.20;99.90
20459;DHT22;10388;52.314;7.938;2024-03-06T02:06:33;5.20;99.90
20459;DHT22;10388;52.314;7.938;2024-03-06T02:09:04;5.20;99.90
20459;DHT22;10388;52.314;7.938;2024-03-06T02:11:38;5.30;99.90
20459;DHT22;10388;52.314;7.938;2024-03-06T02:14:08;5.20;99.90
20459;DHT22;10388;52.314;7.938;2024-03-06T02:16:40;5.20;99.90
20459;DHT22;10388;52.314;7.938;2024-03-06T03:47:10;4.90;99.90
20459;DHT22;10388;52.314;7.938;2024-03-06T03:49:50;4.90;99.90
20459;DHT22;10388;52.314;7.938;2024-03-06T03:52:50;4.90;99.90
20459;DHT22;10388;52.314;7.938;2024-03-06T03:55:28;4.90;99.90
20459;DHT22;10388;52.314;7.938;2024-03-06T03:58:09;4.90;99.90
20459;DHT22;10388;52.314;7.938;2024-03-06T04:00:59;4.90;99.90
20459;DHT22;10388;52.314;7.938;2024-03-06T04:06:53;4.90;99.90
20459;DHT22;10388;52.314;7.938;2024-03-06T04:13:35;4.90;99.90
20459;DHT22;10388;52.314;7.938;2024-03-06T04:16:35;4.90;99.90
20459;DHT22;10388;52.314;7.938;2024-03-06T04:23:00;4.90;99.90
20459;DHT22;10388;52.314;7.938;2024-03-06T04:26:08;4.90;99.90
20459;DHT22;10388;52.314;7.938;2024-03-06T04:29:33;4.90;99.90
20459;DHT22;10388;52.314;7.938;2024-03-06T04:32:14;4.90;99.90
20459;DHT22;10388;52.314;7.938;2024-03-06T04:35:02;4.90;99.90
20459;DHT22;10388;52.314;7.938;2024-03-06T04:37:58;4.90;99.90
20459;DHT22;10388;52.314;7.938;2024-03-06T04:40:48;4.90;99.90
20459;DHT22;10388;52.314;7.938;2024-03-06T04:43:29;4.90;99.90
20459;DHT22;10388;52.314;7.938;2024-03-06T04:46:05;4.90;99.90
20459;DHT22;10388;52.314;7.938;2024-03-06T04:51:53;4.90;99.90
20459;DHT22;10388;52.314;7.938;2024-03-06T04:54:27;4.90;99.90
20459;DHT22;10388;52.314;7.938;2024-03-06T04:57:16;4.90;99.90
20459;DHT22;10388;52.314;7.938;2024-03-06T05:00:11;4.90;99.90
20459;DHT22;10388;52.314;7.938;2024-03-06T05:03:17;4.80;99.90
20459;DHT22;10388;52.314;7.938;2024-03-06T05:18:56;4.70;99.90
20459;DHT22;10388;52.314;7.938;2024-03-06T05:21:27;4.70;99.90
20459;DHT22;10388;52.314;7.938;2024-03-06T05:23:58;4.70;99.90
20459;DHT22;10388;52.314;7.938;2024-03-06T05:26:28;4.60;99.90
20459;DHT22;10388;52.314;7.938;2024-03-06T05:28:59;4.60;99.90
20459;DHT22;10388;52.314;7.938;2024-03-06T05:31:29;4.60;99.90
20459;DHT22;10388;52.314;7.938;2024-03-06T05:34:00;4.60;99.90
20459;DHT22;10388;52.314;7.938;2024-03-06T05:36:31;4.70;99.90
20459;DHT22;10388;52.314;7.938;2024-03-06T05:39:01;4.60;99.90
20459;DHT22;10388;52.314;7.938;2024-03-06T05:41:37;4.70;99.90
20459;DHT22;10388;52.314;7.938;2024-03-06T05:44:08;4.60;99.90
20459;DHT22;10388;52.314;7.938;2024-03-06T05:46:38;4.60;99.90
20459;DHT22;10388;52.314;7.938;2024-03-06T05:49:09;4.60;99.90
20459;DHT22;10388;52.314;7.938;2024-03-06T05:51:39;4.70;99.90
20459;DHT22;10388;52.314;7.938;2024-03-06T05:54:10;4.70;99.90
20459;DHT22;10388;52.314;7.938;2024-03-06T05:56:40;4.70;99.90
20459;DHT22;10388;52.314;7.938;2024-03-06T05:59:12;4.70;99.90
20459;DHT22;10388;52.314;7.938;2024-03-06T06:01:43;4.70;99.90
20459;DHT22;10388;52.314;7.938;2024-03-06T06:04:14;4.70;99.90
20459;DHT22;10388;52.314;7.938;2024-03-06T06:06:45;4.70;99.90
20459;DHT22;10388;52.314;7.938;2024-03-06T06:09:15;4.70;99.90
20459;DHT22;10388;52.314;7.938;2024-03-06T06:11:46;4.70;99.90
20459;DHT22;10388;52.314;7.938;2024-03-06T06:14:18;4.70;99.90
20459;DHT22;10388;52.314;7.938;2024-03-06T06:16:48;4.70;99.90
20459;DHT22;10388;52.314;7.938;2024-03-06T06:19:19;4.70;99.90
20459;DHT22;10388;52.314;7.938;2024-03-06T06:21:51;4.70;99.90
20459;DHT22;10388;52.314;7.938;2024-03-06T06:24:23;4.70;99.90
20459;DHT22;10388;52.314;7.938;2024-03-06T06:26:53;4.70;99.90
20459;DHT22;10388;52.314;7.938;2024-03-06T06:29:24;4.70;99.90
20459;DHT22;10388;52.314;7.938;2024-03-06T06:31:55;4.70;99.90
20459;DHT22;10388;52.314;7.938;2024-03-06T06:34:27;4.70;99.90
20459;DHT22;10388;52.314;7.938;2024-03-06T06:36:58;4.70;99.90
20459;DHT22;10388;52.314;7.938;2024-03-06T06:39:29;4.70;99.90
20459;DHT22;10388;52.314;7.938;2024-03-06T06:41:59;4.70;99.90
20459;DHT22;10388;52.314;7.938;2024-03-06T06:44:30;4.70;99.90
20459;DHT22;10388;52.314;7.938;2024-03-06T06:47:00;4.70;99.90
20459;DHT22;10388;52.314;7.938;2024-03-06T06:49:31;4.70;99.90
20459;DHT22;10388;52.314;7.938;2024-03-06T06:52:03;4.70;99.90
20459;DHT22;10388;52.314;7.938;2024-03-06T06:54:34;4.70;99.90
20459;DHT22;10388;52.314;7.938;2024-03-06T06:57:04;4.70;99.90
20459;DHT22;10388;52.314;7.938;2024-03-06T06:59:35;4.70;99.90
20459;DHT22;10388;52.314;7.938;2024-03-06T07:02:06;4.70;99.90
20459;DHT22;10388;52.314;7.938;2024-03-06T07:04:36;4.70;99.90
20459;DHT22;10388;52.314;7.938;2024-03-06T07:07:07;4.80;99.90
20459;DHT22;10388;52.314;7.938;2024-03-06T07:09:38;4.80;99.90
20459;DHT22;10388;52.314;7.938;2024-03-06T07:12:08;4.80;99.90
20459;DHT22;10388;52.314;7.938;2024-03-06T07:14:39;4.80;99.90
20459;DHT22;10388;52.314;7.938;2024-03-06T07:17:10;4.80;99.90
20459;DHT22;10388;52.314;7.938;2024-03-06T07:19:40;4.80;99.90
20459;DHT22;10388;52.314;7.938;2024-03-06T07:22:11;4.80;99.90
20459;DHT22;10388;52.314;7.938;2024-03-06T07:24:41;4.80;99.90
20459;DHT22;10388;52.314;7.938;2024-03-06T07:27:12;4.80;99.90
20459;DHT22;10388;52.314;7.938;2024-03-06T07:29:43;4.80;99.90
20459;DHT22;10388;52.314;7.938;2024-03-06T07:32:13;4.80;99.90
20459;DHT22;10388;52.314;7.938;2024-03-06T07:34:44;4.80;99.90
20459;DHT22;10388;52.314;7.938;2024-03-06T07:37:14;4.90;99.90
20459;DHT22;10388;52.314;7.938;2024-03-06T07:39:45;5.00;99.90
20459;DHT22;10388;52.314;7.938;2024-03-06T07:42:16;4.90;99.90
20459;DHT22;10388;52.314;7.938;2024-03-06T07:44:48;4.90;99.90
20459;DHT22;10388;52.314;7.938;2024-03-06T07:47:19;4.90;99.90
20459;DHT22;10388;52.314;7.938;2024-03-06T07:49:50;4.90;99.90
20459;DHT22;10388;52.314;7.938;2024-03-06T07:52:21;4.90;99.90
20459;DHT22;10388;52.314;7.938;2024-03-06T07:54:51;4.90;99.90
20459;DHT22;10388;52.314;7.938;2024-03-06T07:57:22;4.90;99.90
20459;DHT22;10388;52.314;7.938;2024-03-06T07:59:53;4.90;99.90
20459;DHT22;10388;52.314;7.938;2024-03-06T08:02:25;5.00;99.90
20459;DHT22;10388;52.314;7.938;2024-03-06T08:04:55;4.90;99.90
20459;DHT22;10388;52.314;7.938;2024-03-06T08:07:26;4.90;99.90
20459;DHT22;10388;52.314;7.938;2024-03-06T08:09:57;4.90;99.90
20459;DHT22;10388;52.314;7.938;2024-03-06T08:12:27;5.00;99.90
20459;DHT22;10388;52.314;7.938;2024-03-06T08:14:58;4.90;99.90
20459;DHT22;10388;52.314;7.938;2024-03-06T08:17:28;4.90;99.90
20459;DHT22;10388;52.314;7.938;2024-03-06T08:19:59;5.00;99.90
20459;DHT22;10388;52.314;7.938;2024-03-06T08:22:29;5.00;99.90
20459;DHT22;10388;52.314;7.938;2024-03-06T08:25:00;5.00;99.90
20459;DHT22;10388;52.314;7.938;2024-03-06T08:27:30;5.10;99.90
20459;DHT22;10388;52.314;7.938;2024-03-06T08:30:02;5.10;99.90
20459;DHT22;10388;52.314;7.938;2024-03-06T08:32:35;5.10;99.90
20459;DHT22;10388;52.314;7.938;2024-03-06T08:35:12;5.10;99.90
20459;DHT22;10388;52.314;7.938;2024-03-06T08:37:43;5.10;99.90
20459;DHT22;10388;52.314;7.938;2024-03-06T08:40:13;5.10;99.90
20459;DHT22;10388;52.314;7.938;2024-03-06T08:42:47;5.10;99.90
20459;DHT22;10388;52.314;7.938;2024-03-06T08:45:19;5.10;99.90
20459;DHT22;10388;52.314;7.938;2024-03-06T08:47:50;5.20;99.90
20459;DHT22;10388;52.314;7.938;2024-03-06T08:50:20;5.20;99.90
20459;DHT22;10388;52.314;7.938;2024-03-06T08:52:51;5.20;99.90
20459;DHT22;10388;52.314;7.938;2024-03-06T08:55:22;5.30;99.90
20459;DHT22;10388;52.314;7.938;2024-03-06T08:57:52;5.20;99.90
20459;DHT22;10388;52.314;7.938;2024-03-06T09:00:23;5.30;99.90
20459;DHT22;10388;52.314;7.938;2024-03-06T09:02:56;5.30;99.90
20459;DHT22;10388;52.314;7.938;2024-03-06T09:05:26;5.30;99.90
20459;DHT22;10388;52.314;7.938;2024-03-06T09:07:57;5.40;99.90
20459;DHT22;10388;52.314;7.938;2024-03-06T09:10:27;5.50;99.90
20459;DHT22;10388;52.314;7.938;2024-03-06T09:12:58;5.50;99.90
20459;DHT22;10388;52.314;7.938;2024-03-06T09:15:29;5.50;99.90
20459;DHT22;10388;52.314;7.938;2024-03-06T09:17:59;5.60;99.90
20459;DHT22;10388;52.314;7.938;2024-03-06T09:20:30;5.60;99.90
20459;DHT22;10388;52.314;7.938;2024-03-06T09:23:02;5.60;99.90
20459;DHT22;10388;52.314;7.938;2024-03-06T09:25:33;5.60;99.90
20459;DHT22;10388;52.314;7.938;2024-03-06T09:28:04;5.60;99.90
20459;DHT22;10388;52.314;7.938;2024-03-06T09:30:35;5.60;99.90
20459;DHT22;10388;52.314;7.938;2024-03-06T09:33:06;5.70;99.90
20459;DHT22;10388;52.314;7.938;2024-03-06T09:35:37;5.80;99.90
20459;DHT22;10388;52.314;7.938;2024-03-06T09:38:07;5.80;99.90
20459;DHT22;10388;52.314;7.938;2024-03-06T09:40:40;5.70;99.90
20459;DHT22;10388;52.314;7.938;2024-03-06T09:43:11;5.90;99.90
20459;DHT22;10388;52.314;7.938;2024-03-06T09:45:48;5.70;99.90
20459;DHT22;10388;52.314;7.938;2024-03-06T09:48:20;5.90;99.90
20459;DHT22;10388;52.314;7.938;2024-03-06T09:50:53;5.90;99.90
20459;DHT22;10388;52.314;7.938;2024-03-06T09:53:26;6.00;99.90
20459;DHT22;10388;52.314;7.938;2024-03-06T09:55:56;5.90;99.90
20459;DHT22;10388;52.314;7.938;2024-03-06T09:58:28;6.10;99.90
20459;DHT22;10388;52.314;7.938;2024-03-06T10:01:01;6.10;99.90
20459;DHT22;10388;52.314;7.938;2024-03-06T10:03:34;6.30;99.90
20459;DHT22;10388;52.314;7.938;2024-03-06T10:06:04;6.10;99.90
20459;DHT22;10388;52.314;7.938;2024-03-06T10:08:35;6.10;99.90
20459;DHT22;10388;52.314;7.938;2024-03-06T10:11:08;6.10;99.90
20459;DHT22;10388;52.314;7.938;2024-03-06T10:13:39;6.20;99.90
20459;DHT22;10388;52.314;7.938;2024-03-06T10:16:10;6.20;99.90
20459;DHT22;10388;52.314;7.938;2024-03-06T10:18:41;6.40;99.90
20459;DHT22;10388;52.314;7.938;2024-03-06T10:21:13;6.40;99.90
20459;DHT22;10388;52.314;7.938;2024-03-06T10:23:46;6.50;99.90
20459;DHT22;10388;52.314;7.938;2024-03-06T10:26:17;6.30;99.90
20459;DHT22;10388;52.314;7.938;2024-03-06T10:28:48;6.30;99.90
20459;DHT22;10388;52.314;7.938;2024-03-06T10:31:27;6.20;99.90
20459;DHT22;10388;52.314;7.938;2024-03-06T10:33:58;6.20;99.90
20459;DHT22;10388;52.314;7.938;2024-03-06T10:36:32;6.40;99.90
20459;DHT22;10388;52.314;7.938;2024-03-06T10:39:03;6.70;99.90
20459;DHT22;10388;52.314;7.938;2024-03-06T10:41:35;6.80;99.90
20459;DHT22;10388;52.314;7.938;2024-03-06T10:44:11;6.90;99.90
20459;DHT22;10388;52.314;7.938;2024-03-06T10:46:44;6.70;99.90
20459;DHT22;10388;52.314;7.938;2024-03-06T10:49:18;6.70;99.90
20459;DHT22;10388;52.314;7.938;2024-03-06T10:51:50;6.70;99.90
20459;DHT22;10388;52.314;7.938;2024-03-06T10:54:22;6.80;99.90
20459;DHT22;10388;52.314;7.938;2024-03-06T10:56:54;6.90;99.90
20459;DHT22;10388;52.314;7.938;2024-03-06T10:59:26;6.90;99.90
20459;DHT22;10388;52.314;7.938;2024-03-06T11:01:59;7.10;99.90
20459;DHT22;10388;52.314;7.938;2024-03-06T11:04:32;7.00;99.90
20459;DHT22;10388;52.314;7.938;2024-03-06T11:07:06;6.80;99.90
20459;DHT22;10388;52.314;7.938;2024-03-06T11:09:37;6.80;99.90
20459;DHT22;10388;52.314;7.938;2024-03-06T11:12:09;7.00;99.90
20459;DHT22;10388;52.314;7.938;2024-03-06T11:14:40;7.10;99.90
20459;DHT22;10388;52.314;7.938;2024-03-06T11:17:11;6.90;99.90
20459;DHT22;10388;52.314;7.938;2024-03-06T11:28:23;7.30;99.90
20459;DHT22;10388;52.314;7.938;2024-03-06T11:33:38;7.40;99.90
20459;DHT22;10388;52.314;7.938;2024-03-06T11:36:20;7.50;99.90
20459;DHT22;10388;52.314;7.938;2024-03-06T11:39:05;7.30;99.90
20459;DHT22;10388;52.314;7.938;2024-03-06T11:44:21;7.40;99.90
20459;DHT22;10388;52.314;7.938;2024-03-06T11:47:03;7.60;99.90
20459;DHT22;10388;52.314;7.938;2024-03-06T11:49:35;7.80;99.90
20459;DHT22;10388;52.314;7.938;2024-03-06T11:52:08;7.80;99.90
20459;DHT22;10388;52.314;7.938;2024-03-06T11:54:39;7.80;99.90
20459;DHT22;10388;52.314;7.938;2024-03-06T11:57:09;7.60;99.90
20459;DHT22;10388;52.314;7.938;2024-03-06T11:59:42;7.70;99.90
20459;DHT22;10388;52.314;7.938;2024-03-06T12:02:13;7.60;99.90
20459;DHT22;10388;52.314;7.938;2024-03-06T12:04:44;7.60;99.90
20459;DHT22;10388;52.314;7.938;2024-03-06T12:07:14;7.90;99.90
20459;DHT22;10388;52.314;7.938;2024-03-06T12:09:46;8.00;99.90
20459;DHT22;10388;52.314;7.938;2024-03-06T12:12:16;8.00;99.90
20459;DHT22;10388;52.314;7.938;2024-03-06T12:14:59;8.00;99.90
20459;DHT22;10388;52.314;7.938;2024-03-06T12:17:45;8.20;99.90
20459;DHT22;10388;52.314;7.938;2024-03-06T12:20:23;8.30;99.90
20459;DHT22;10388;52.314;7.938;2024-03-06T12:22:56;8.10;99.90
20459;DHT22;10388;52.314;7.938;2024-03-06T12:25:27;8.20;99.90
20459;DHT22;10388;52.314;7.938;2024-03-06T12:28:07;8.20;99.90
20459;DHT22;10388;52.314;7.938;2024-03-06T12:30:43;8.00;99.90
20459;DHT22;10388;52.314;7.938;2024-03-06T12:33:16;7.60;99.90
20459;DHT22;10388;52.314;7.938;2024-03-06T12:35:47;7.70;99.90
20459;DHT22;10388;52.314;7.938;2024-03-06T12:38:18;7.80;99.90
20459;DHT22;10388;52.314;7.938;2024-03-06T12:40:49;7.90;99.90
20459;DHT22;10388;52.314;7.938;2024-03-06T12:43:19;7.90;99.90
20459;DHT22;10388;52.314;7.938;2024-03-06T12:45:50;8.00;99.90
20459;DHT22;10388;52.314;7.938;2024-03-06T12:48:22;7.80;99.90
20459;DHT22;10388;52.314;7.938;2024-03-06T12:50:52;7.80;99.90
20459;DHT22;10388;52.314;7.938;2024-03-06T12:53:24;7.90;99.90
20459;DHT22;10388;52.314;7.938;2024-03-06T12:55:55;7.90;99.90
20459;DHT22;10388;52.314;7.938;2024-03-06T12:58:25;8.10;99.90
20459;DHT22;10388;52.314;7.938;2024-03-06T13:00:56;8.20;99.90
20459;DHT22;10388;52.314;7.938;2024-03-06T13:03:28;8.20;99.90
20459;DHT22;10388;52.314;7.938;2024-03-06T13:05:59;8.20;99.90
20459;DHT22;10388;52.314;7.938;2024-03-06T13:08:30;8.20;99.90
20459;DHT22;10388;52.314;7.938;2024-03-06T13:11:01;8.20;99.90
20459;DHT22;10388;52.314;7.938;2024-03-06T13:13:32;8.00;99.90
20459;DHT22;10388;52.314;7.938;2024-03-06T13:16:05;7.90;99.90
20459;DHT22;10388;52.314;7.938;2024-03-06T13:18:35;7.90;99.90
20459;DHT22;10388;52.314;7.938;2024-03-06T13:21:06;8.00;99.90
20459;DHT22;10388;52.314;7.938;2024-03-06T13:23:36;8.20;99.90
20459;DHT22;10388;52.314;7.938;2024-03-06T13:26:08;8.20;99.90
20459;DHT22;10388;52.314;7.938;2024-03-06T13:28:39;8.10;99.90
20459;DHT22;10388;52.314;7.938;2024-03-06T13:31:09;8.10;99.90
20459;DHT22;10388;52.314;7.938;2024-03-06T13:33:40;8.00;99.90
20459;DHT22;10388;52.314;7.938;2024-03-06T13:36:11;8.20;99.90
20459;DHT22;10388;52.314;7.938;2024-03-06T13:38:41;8.20;99.90
20459;DHT22;10388;52.314;7.938;2024-03-06T13:41:12;8.30;99.90
20459;DHT22;10388;52.314;7.938;2024-03-06T13:43:43;8.40;99.90
20459;DHT22;10388;52.314;7.938;2024-03-06T13:46:13;8.40;99.90
20459;DHT22;10388;52.314;7.938;2024-03-06T13:48:44;8.10;99.90
20459;DHT22;10388;52.314;7.938;2024-03-06T13:51:15;8.10;99.90
20459;DHT22;10388;52.314;7.938;2024-03-06T13:53:45;8.00;99.90
20459;DHT22;10388;52.314;7.938;2024-03-06T13:56:16;7.90;99.90
20459;DHT22;10388;52.314;7.938;2024-03-06T13:58:47;8.10;99.90
20459;DHT22;10388;52.314;7.938;2024-03-06T14:01:17;8.20;99.90
20459;DHT22;10388;52.314;7.938;2024-03-06T14:03:48;8.10;99.90
20459;DHT22;10388;52.314;7.938;2024-03-06T14:06:19;8.00;99.90
20459;DHT22;10388;52.314;7.938;2024-03-06T14:08:49;8.00;99.90
20459;DHT22;10388;52.314;7.938;2024-03-06T14:11:20;7.80;99.90
20459;DHT22;10388;52.314;7.938;2024-03-06T14:13:50;7.90;99.90
20459;DHT22;10388;52.314;7.938;2024-03-06T14:16:21;8.00;99.90
20459;DHT22;10388;52.314;7.938;2024-03-06T14:18:52;8.00;99.90
20459;DHT22;10388;52.314;7.938;2024-03-06T14:21:23;8.00;99.90
20459;DHT22;10388;52.314;7.938;2024-03-06T14:23:53;7.90;99.90
20459;DHT22;10388;52.314;7.938;2024-03-06T14:26:24;7.80;99.90
20459;DHT22;10388;52.314;7.938;2024-03-06T14:28:55;7.90;99.90
20459;DHT22;10388;52.314;7.938;2024-03-06T14:31:25;7.90;99.90
20459;DHT22;10388;52.314;7.938;2024-03-06T14:33:56;7.90;99.90
20459;DHT22;10388;52.314;7.938;2024-03-06T14:36:27;8.10;99.90
20459;DHT22;10388;52.314;7.938;2024-03-06T14:38:57;8.10;99.90
20459;DHT22;10388;52.314;7.938;2024-03-06T14:41:28;7.90;99.90
20459;DHT22;10388;52.314;7.938;2024-03-06T14:43:59;8.00;99.90
20459;DHT22;10388;52.314;7.938;2024-03-06T14:46:29;8.00;99.90
20459;DHT22;10388;52.314;7.938;2024-03-06T14:49:00;8.10;99.90
20459;DHT22;10388;52.314;7.938;2024-03-06T14:51:33;8.20;99.90
20459;DHT22;10388;52.314;7.938;2024-03-06T14:54:03;8.20;99.90
20459;DHT22;10388;52.314;7.938;2024-03-06T14:56:34;8.20;99.90
20459;DHT22;10388;52.314;7.938;2024-03-06T14:59:05;8.20;99.90
20459;DHT22;10388;52.314;7.938;2024-03-06T15:01:36;8.20;99.90
20459;DHT22;10388;52.314;7.938;2024-03-06T15:04:08;8.30;99.90
20459;DHT22;10388;52.314;7.938;2024-03-06T15:06:38;8.20;99.90
20459;DHT22;10388;52.314;7.938;2024-03-06T15:09:09;8.20;99.90
20459;DHT22;10388;52.314;7.938;2024-03-06T15:11:43;8.00;99.90
20459;DHT22;10388;52.314;7.938;2024-03-06T15:14:14;8.10;99.90
20459;DHT22;10388;52.314;7.938;2024-03-06T15:16:44;8.10;99.90
20459;DHT22;10388;52.314;7.938;2024-03-06T15:19:15;8.10;99.90
20459;DHT22;10388;52.314;7.938;2024-03-06T15:21:50;8.00;99.90
20459;DHT22;10388;52.314;7.938;2024-03-06T15:24:20;8.10;99.90
20459;DHT22;10388;52.314;7.938;2024-03-06T15:26:51;8.20;99.90
20459;DHT22;10388;52.314;7.938;2024-03-06T15:29:22;8.20;99.90
20459;DHT22;10388;52.314;7.938;2024-03-06T15:31:53;8.10;99.90
20459;DHT22;10388;52.314;7.938;2024-03-06T15:34:23;8.10;99.90
20459;DHT22;10388;52.314;7.938;2024-03-06T15:36:54;8.10;99.90
20459;DHT22;10388;52.314;7.938;2024-03-06T15:39:25;8.10;99.90
20459;DHT22;10388;52.314;7.938;2024-03-06T15:41:56;8.00;99.90
20459;DHT22;10388;52.314;7.938;2024-03-06T15:44:27;8.00;99.90
20459;DHT22;10388;52.314;7.938;2024-03-06T15:46:58;7.90;99.90
20459;DHT22;10388;52.314;7.938;2024-03-06T15:49:28;7.90;99.90
20459;DHT22;10388;52.314;7.938;2024-03-06T15:51:59;8.00;99.90
20459;DHT22;10388;52.314;7.938;2024-03-06T15:54:30;8.00;99.90
20459;DHT22;10388;52.314;7.938;2024-03-06T15:57:01;7.90;99.90
20459;DHT22;10388;52.314;7.938;2024-03-06T15:59:36;7.80;99.90
20459;DHT22;10388;52.314;7.938;2024-03-06T16:02:07;7.90;99.90
20459;DHT22;10388;52.314;7.938;2024-03-06T16:04:38;7.90;99.90
20459;DHT22;10388;52.314;7.938;2024-03-06T16:07:08;7.80;99.90
20459;DHT22;10388;52.314;7.938;2024-03-06T16:09:40;7.80;99.90
20459;DHT22;10388;52.314;7.938;2024-03-06T16:12:10;7.80;99.90
20459;DHT22;10388;52.314;7.938;2024-03-06T16:14:41;7.80;99.90
20459;DHT22;10388;52.314;7.938;2024-03-06T16:17:12;7.80;99.90
20459;DHT22;10388;52.314;7.938;2024-03-06T16:19:42;7.80;99.90
20459;DHT22;10388;52.314;7.938;2024-03-06T16:22:13;7.80;99.90
20459;DHT22;10388;52.314;7.938;2024-03-06T16:24:43;7.80;99.90
20459;DHT22;10388;52.314;7.938;2024-03-06T16:27:15;7.70;99.90
20459;DHT22;10388;52.314;7.938;2024-03-06T16:29:47;7.70;99.90
20459;DHT22;10388;52.314;7.938;2024-03-06T16:32:18;7.70;99.90
20459;DHT22;10388;52.314;7.938;2024-03-06T16:34:48;7.70;99.90
20459;DHT22;10388;52.314;7.938;2024-03-06T16:37:19;7.70;99.90
20459;DHT22;10388;52.314;7.938;2024-03-06T16:39:50;7.60;99.90
20459;DHT22;10388;52.314;7.938;2024-03-06T16:42:20;7.60;99.90
20459;DHT22;10388;52.314;7.938;2024-03-06T16:44:51;7.60;99.90
20459;DHT22;10388;52.314;7.938;2024-03-06T16:47:21;7.50;99.90
20459;DHT22;10388;52.314;7.938;2024-03-06T16:49:52;7.50;99.90
20459;DHT22;10388;52.314;7.938;2024-03-06T16:52:22;7.40;99.90
20459;DHT22;10388;52.314;7.938;2024-03-06T16:54:54;7.40;99.90
20459;DHT22;10388;52.314;7.938;2024-03-06T16:57:24;7.30;99.90
20459;DHT22;10388;52.314;7.938;2024-03-06T16:59:55;7.20;99.90
20459;DHT22;10388;52.314;7.938;2024-03-06T17:02:25;7.20;99.90
20459;DHT22;10388;52.314;7.938;2024-03-06T17:04:56;7.10;99.90
20459;DHT22;10388;52.314;7.938;2024-03-06T17:07:27;7.10;99.90
20459;DHT22;10388;52.314;7.938;2024-03-06T17:09:57;6.90;99.90
20459;DHT22;10388;52.314;7.938;2024-03-06T17:12:28;6.80;99.90
20459;DHT22;10388;52.314;7.938;2024-03-06T17:14:59;6.80;99.90
20459;DHT22;10388;52.314;7.938;2024-03-06T17:17:29;6.80;99.90
20459;DHT22;10388;52.314;7.938;2024-03-06T17:20:00;6.80;99.90
20459;DHT22;10388;52.314;7.938;2024-03-06T17:22:31;6.70;99.90
20459;DHT22;10388;52.314;7.938;2024-03-06T17:25:02;6.70;99.90
20459;DHT22;10388;52.314;7.938;2024-03-06T17:27:32;6.60;99.90
20459;DHT22;10388;52.314;7.938;2024-03-06T17:30:04;6.60;99.90
20459;DHT22;10388;52.314;7.938;2024-03-06T17:32:35;6.60;99.90
20459;DHT22;10388;52.314;7.938;2024-03-06T17:35:05;6.50;99.90
20459;DHT22;10388;52.314;7.938;2024-03-06T17:37:36;6.50;99.90
20459;DHT22;10388;52.314;7.938;2024-03-06T17:40:07;6.50;99.90
20459;DHT22;10388;52.314;7.938;2024-03-06T17:42:41;6.40;99.90
20459;DHT22;10388;52.314;7.938;2024-03-06T17:45:13;6.40;99.90
20459;DHT22;10388;52.314;7.938;2024-03-06T17:47:43;6.40;99.90
20459;DHT22;10388;52.314;7.938;2024-03-06T17:50:14;6.30;99.90
20459;DHT22;10388;52.314;7.938;2024-03-06T17:52:45;6.30;99.90
20459;DHT22;10388;52.314;7.938;2024-03-06T17:55:16;6.30;99.90
20459;DHT22;10388;52.314;7.938;2024-03-06T17:57:46;6.30;99.90
20459;DHT22;10388;52.314;7.938;2024-03-06T18:00:17;6.30;99.90
20459;DHT22;10388;52.314;7.938;2024-03-06T18:02:48;6.30;99.90
20459;DHT22;10388;52.314;7.938;2024-03-06T18:05:20;6.30;99.90
20459;DHT22;10388;52.314;7.938;2024-03-06T18:07:51;6.30;99.90
20459;DHT22;10388;52.314;7.938;2024-03-06T18:10:21;6.20;99.90
20459;DHT22;10388;52.314;7.938;2024-03-06T18:12:56;6.20;99.90
20459;DHT22;10388;52.314;7.938;2024-03-06T18:15:33;6.20;99.90
20459;DHT22;10388;52.314;7.938;2024-03-06T18:18:04;6.30;99.90
20459;DHT22;10388;52.314;7.938;2024-03-06T18:20:34;6.30;99.90
20459;DHT22;10388;52.314;7.938;2024-03-06T18:23:05;6.30;99.90
20459;DHT22;10388;52.314;7.938;2024-03-06T18:25:36;6.40;99.90